PRCO2: Canadian River, Purcell, OK

Data processed at Thu Jan 04 2018 23:43


All information presented herein is the property of the government of the United States of America and may be revised or deleted at any time without prior notice.
Dissemination of this information without the expressed written consent of the Public Affairs Office, Tulsa District U.S. Army Corps of Engineers is strictly prohibited.
These data are gathered electronically and, as presented, have not undergone any form of quality control. These data are not guaranteed to be valid or correct.
Go to home page.
Go to station list.


Previous Day
Next Day
Current Day


    
SHEF ID:       PRCO2     Canadian River at Purcell, OK
STATION TYPE:  

               PRECIP PRECIP(A)     STAGE  RIV-FLOW  BAT-LOAD
                   in        in        ft       cfs      volt
              Ccp-Rev   Ccp-Rev   Ccp-Rev   Ccp-Rev   Ccp-Rev
(US/Central)
01/02 00:00      ----      0.00      3.76       279     12.41
01/02 01:00      ----      0.00      3.74       269     12.41
01/02 02:00      ----      0.00      3.70       251     12.41
01/02 03:00      ----      0.00      3.67       238     12.41
01/02 04:00      ----      0.00      3.65       230     12.41
01/02 05:00      ----      0.00      3.64       225     12.41
01/02 06:00      ----      0.00      3.63       221     12.41
01/02 07:00      ----      0.00      3.63       221     12.33
01/02 08:00      ----      0.00      3.63       221     12.33
01/02 09:00      ----      0.00      3.65       230     12.49
01/02 10:00      ----      0.00      3.65       230     12.97
01/02 11:00      ----      0.00      3.65       230     13.60
01/02 12:00      ----      0.00      3.64       225     14.00
01/02 13:00      ----      0.00      3.63       221     14.16
01/02 14:00      ----      0.00      3.62       217     14.08
01/02 15:00      ----      0.00      3.62       217     14.08
01/02 16:00      ----      0.00      3.62       217     14.00
01/02 17:00      ----      0.00      3.63       221     13.68
01/02 18:00      ----      0.00      3.64       225     13.05
01/02 19:00      ----      0.00      3.65       230     12.65
01/02 20:00      ----      0.00      3.66       234     12.57
01/02 21:00      ----      0.00      3.68       242     12.57
01/02 22:00      ----      0.00      3.71       256     12.49
01/02 23:00      ----      0.00      3.74       269     12.49